sensor_id;sensor_type;location;lat;lon;timestamp;pressure;altitude;pressure_sealevel;temperature;humidity
3960;BME280;1994;48.640;8.894;2022-11-20T03:14:06;95640.34;;;4.03;100.00
3960;BME280;1994;48.640;8.894;2022-11-20T03:16:43;95634.09;;;3.93;100.00
3960;BME280;1994;48.640;8.894;2022-11-20T03:19:09;95639.41;;;3.98;100.00
3960;BME280;1994;48.640;8.894;2022-11-20T03:21:37;95634.09;;;3.93;100.00
3960;BME280;1994;48.640;8.894;2022-11-20T03:24:09;95636.41;;;4.01;100.00
3960;BME280;1994;48.640;8.894;2022-11-20T03:26:39;95636.00;;;4.04;100.00
3960;BME280;1994;48.640;8.894;2022-11-20T03:32:54;95640.75;;;4.00;100.00
3960;BME280;1994;48.640;8.894;2022-11-20T03:35:23;95633.47;;;3.97;100.00
3960;BME280;1994;48.640;8.894;2022-11-20T03:37:51;95634.84;;;4.00;100.00
3960;BME280;1994;48.640;8.894;2022-11-20T03:40:23;95635.22;;;3.97;100.00
3960;BME280;1994;48.640;8.894;2022-11-20T03:42:56;95638.56;;;4.04;100.00
3960;BME280;1994;48.640;8.894;2022-11-20T03:45:23;95635.97;;;4.10;100.00
3960;BME280;1994;48.640;8.894;2022-11-20T03:47:54;95636.00;;;4.04;100.00
3960;BME280;1994;48.640;8.894;2022-11-20T03:50:21;95634.75;;;4.13;100.00
3960;BME280;1994;48.640;8.894;2022-11-20T03:52:54;95635.19;;;4.10;100.00
3960;BME280;1994;48.640;8.894;2022-11-20T03:55:21;95642.63;;;4.18;100.00
3960;BME280;1994;48.640;8.894;2022-11-20T03:57:54;95632.97;;;4.20;100.00
3960;BME280;1994;48.640;8.894;2022-11-20T04:00:25;95630.59;;;4.25;100.00
3960;BME280;1994;48.640;8.894;2022-11-20T04:02:57;95636.84;;;4.29;100.00
3960;BME280;1994;48.640;8.894;2022-11-20T04:05:36;95641.81;;;4.24;100.00
3960;BME280;1994;48.640;8.894;2022-11-20T04:11:57;95645.44;;;4.41;100.00
3960;BME280;1994;48.640;8.894;2022-11-20T04:14:24;95639.34;;;4.42;100.00
3960;BME280;1994;48.640;8.894;2022-11-20T04:16:55;95644.06;;;4.45;100.00
3960;BME280;1994;48.640;8.894;2022-11-20T04:19:24;95634.22;;;4.42;100.00
3960;BME280;1994;48.640;8.894;2022-11-20T04:21:51;95622.38;;;4.41;100.00
3960;BME280;1994;48.640;8.894;2022-11-20T04:24:27;95624.38;;;4.39;100.00
3960;BME280;1994;48.640;8.894;2022-11-20T04:26:57;95625.88;;;4.53;100.00
3960;BME280;1994;48.640;8.894;2022-11-20T04:29:24;95626.22;;;4.56;100.00
3960;BME280;1994;48.640;8.894;2022-11-20T04:31:52;95632.94;;;4.57;100.00
3960;BME280;1994;48.640;8.894;2022-11-20T04:34:26;95626.59;;;4.60;100.00
3960;BME280;1994;48.640;8.894;2022-11-20T04:36:53;95624.34;;;4.45;100.00
3960;BME280;1994;48.640;8.894;2022-11-20T04:43:01;95620.81;;;4.40;100.00
3960;BME280;1994;48.640;8.894;2022-11-20T04:45:28;95619.41;;;4.44;100.00
3960;BME280;1994;48.640;8.894;2022-11-20T04:51:36;95631.88;;;4.34;100.00
3960;BME280;1994;48.640;8.894;2022-11-20T04:54:05;95631.06;;;4.40;100.00
3960;BME280;1994;48.640;8.894;2022-11-20T04:56:35;95622.78;;;4.44;100.00
3960;BME280;1994;48.640;8.894;2022-11-20T05:02:45;95624.59;;;4.62;100.00
3960;BME280;1994;48.640;8.894;2022-11-20T05:05:13;95621.09;;;4.56;100.00
3960;BME280;1994;48.640;8.894;2022-11-20T05:07:43;95625.44;;;4.56;100.00
3960;BME280;1994;48.640;8.894;2022-11-20T05:10:14;95616.75;;;4.57;100.00
3960;BME280;1994;48.640;8.894;2022-11-20T05:12:45;95623.88;;;4.55;100.00
3960;BME280;1994;48.640;8.894;2022-11-20T05:15:11;95620.75;;;4.53;100.00
3960;BME280;1994;48.640;8.894;2022-11-20T05:17:40;95618.63;;;4.68;100.00
3960;BME280;1994;48.640;8.894;2022-11-20T05:20:12;95614.34;;;4.62;100.00
3960;BME280;1994;48.640;8.894;2022-11-20T05:22:47;95612.09;;;4.72;100.00
3960;BME280;1994;48.640;8.894;2022-11-20T05:25:14;95603.63;;;4.71;100.00
3960;BME280;1994;48.640;8.894;2022-11-20T05:27:44;95611.41;;;4.83;100.00
3960;BME280;1994;48.640;8.894;2022-11-20T05:30:18;95614.72;;;4.90;100.00
3960;BME280;1994;48.640;8.894;2022-11-20T05:32:51;95613.72;;;4.91;99.79
3960;BME280;1994;48.640;8.894;2022-11-20T05:35:30;95607.31;;;5.00;99.70
3960;BME280;1994;48.640;8.894;2022-11-20T05:41:27;95612.94;;;4.90;99.63
3960;BME280;1994;48.640;8.894;2022-11-20T05:43:57;95625.25;;;4.82;99.82
3960;BME280;1994;48.640;8.894;2022-11-20T05:46:33;95614.66;;;4.72;99.82
3960;BME280;1994;48.640;8.894;2022-11-20T05:49:03;95610.13;;;4.74;100.00
3960;BME280;1994;48.640;8.894;2022-11-20T05:51:35;95612.56;;;4.87;99.81
3960;BME280;1994;48.640;8.894;2022-11-20T05:54:03;95612.97;;;4.84;99.75
3960;BME280;1994;48.640;8.894;2022-11-20T05:56:36;95614.88;;;4.95;99.41
3960;BME280;1994;48.640;8.894;2022-11-20T05:59:10;95614.13;;;4.88;99.70
3960;BME280;1994;48.640;8.894;2022-11-20T06:01:37;95610.19;;;5.10;98.96
3960;BME280;1994;48.640;8.894;2022-11-20T06:04:07;95616.63;;;5.19;98.55
3960;BME280;1994;48.640;8.894;2022-11-20T06:06:41;95614.63;;;5.21;98.10
3960;BME280;1994;48.640;8.894;2022-11-20T06:12:49;95618.75;;;5.04;98.42
3960;BME280;1994;48.640;8.894;2022-11-20T06:15:22;95613.19;;;5.07;98.52
3960;BME280;1994;48.640;8.894;2022-11-20T06:17:56;95616.34;;;5.09;98.62
3960;BME280;1994;48.640;8.894;2022-11-20T06:20:35;95611.03;;;5.04;98.70
3960;BME280;1994;48.640;8.894;2022-11-20T06:23:11;95603.75;;;5.01;99.36
3960;BME280;1994;48.640;8.894;2022-11-20T06:25:42;95599.44;;;5.19;99.62
3960;BME280;1994;48.640;8.894;2022-11-20T06:31:41;95602.38;;;5.23;98.74
3960;BME280;1994;48.640;8.894;2022-11-20T06:34:15;95598.88;;;5.17;98.48
3960;BME280;1994;48.640;8.894;2022-11-20T06:36:45;95601.94;;;5.26;98.28
3960;BME280;1994;48.640;8.894;2022-11-20T06:39:14;95601.78;;;5.21;98.55
3960;BME280;1994;48.640;8.894;2022-11-20T06:41:45;95598.31;;;5.15;98.80
3960;BME280;1994;48.640;8.894;2022-11-20T06:44:15;95608.66;;;5.27;98.48
3960;BME280;1994;48.640;8.894;2022-11-20T06:46:43;95604.94;;;5.23;98.28
3960;BME280;1994;48.640;8.894;2022-11-20T06:52:46;95605.94;;;5.22;98.42
3960;BME280;1994;48.640;8.894;2022-11-20T06:55:16;95606.22;;;5.32;98.12
3960;BME280;1994;48.640;8.894;2022-11-20T06:57:45;95602.94;;;5.43;97.93
3960;BME280;1994;48.640;8.894;2022-11-20T07:00:17;95610.50;;;5.38;98.16
3960;BME280;1994;48.640;8.894;2022-11-20T07:02:50;95612.38;;;5.49;97.66
3960;BME280;1994;48.640;8.894;2022-11-20T07:05:20;95619.22;;;5.37;98.22
3960;BME280;1994;48.640;8.894;2022-11-20T07:07:47;95624.78;;;5.52;97.82
3960;BME280;1994;48.640;8.894;2022-11-20T07:10:17;95628.78;;;5.48;97.61
3960;BME280;1994;48.640;8.894;2022-11-20T07:12:51;95626.72;;;5.56;98.17
3960;BME280;1994;48.640;8.894;2022-11-20T07:15:25;95622.63;;;5.49;97.45
3960;BME280;1994;48.640;8.894;2022-11-20T07:17:54;95626.66;;;5.45;98.01
3960;BME280;1994;48.640;8.894;2022-11-20T07:20:27;95625.06;;;5.44;98.64
3960;BME280;1994;48.640;8.894;2022-11-20T07:22:58;95625.06;;;5.44;98.58
3960;BME280;1994;48.640;8.894;2022-11-20T07:25:28;95627.22;;;5.47;98.59
3960;BME280;1994;48.640;8.894;2022-11-20T07:31:38;95634.00;;;5.59;98.64
3960;BME280;1994;48.640;8.894;2022-11-20T07:34:08;95642.97;;;5.68;97.67
3960;BME280;1994;48.640;8.894;2022-11-20T07:36:50;95629.91;;;5.70;98.34
3960;BME280;1994;48.640;8.894;2022-11-20T07:42:58;95630.78;;;5.82;96.88
3960;BME280;1994;48.640;8.894;2022-11-20T07:49:06;95624.94;;;5.93;97.10
3960;BME280;1994;48.640;8.894;2022-11-20T07:51:34;95623.81;;;5.89;97.70
3960;BME280;1994;48.640;8.894;2022-11-20T07:54:00;95633.66;;;5.92;97.78
3960;BME280;1994;48.640;8.894;2022-11-20T07:56:28;95642.91;;;5.93;98.02
3960;BME280;1994;48.640;8.894;2022-11-20T08:02:42;95645.66;;;5.80;99.24
3960;BME280;1994;48.640;8.894;2022-11-20T08:05:13;95659.06;;;6.00;99.29
3960;BME280;1994;48.640;8.894;2022-11-20T08:07:47;95649.75;;;5.99;99.34
3960;BME280;1994;48.640;8.894;2022-11-20T08:10:17;95646.97;;;6.18;98.88
3960;BME280;1994;48.640;8.894;2022-11-20T08:12:51;95654.25;;;6.21;98.56
3960;BME280;1994;48.640;8.894;2022-11-20T08:15:48;95661.28;;;6.26;97.96
3960;BME280;1994;48.640;8.894;2022-11-20T08:22:02;95664.28;;;6.41;97.29
3960;BME280;1994;48.640;8.894;2022-11-20T08:24:37;95673.00;;;6.40;97.21
3960;BME280;1994;48.640;8.894;2022-11-20T08:27:03;95667.16;;;6.33;96.92
3960;BME280;1994;48.640;8.894;2022-11-20T08:29:36;95668.72;;;6.34;97.08
3960;BME280;1994;48.640;8.894;2022-11-20T08:32:04;95660.28;;;6.45;96.35
3960;BME280;1994;48.640;8.894;2022-11-20T08:34:34;95664.72;;;6.38;96.09
3960;BME280;1994;48.640;8.894;2022-11-20T08:37:05;95676.38;;;6.52;96.00
3960;BME280;1994;48.640;8.894;2022-11-20T08:43:01;95676.72;;;6.85;94.48
3960;BME280;1994;48.640;8.894;2022-11-20T08:45:28;95684.56;;;6.90;95.05
3960;BME280;1994;48.640;8.894;2022-11-20T08:48:17;95689.16;;;6.99;95.65
3960;BME280;1994;48.640;8.894;2022-11-20T08:50:47;95687.94;;;7.02;95.95
3960;BME280;1994;48.640;8.894;2022-11-20T08:53:14;95688.81;;;6.96;96.13
3960;BME280;1994;48.640;8.894;2022-11-20T08:55:47;95690.38;;;6.97;96.31
3960;BME280;1994;48.640;8.894;2022-11-20T09:01:43;95699.56;;;6.93;95.91
3960;BME280;1994;48.640;8.894;2022-11-20T09:04:13;95692.59;;;6.82;96.26
3960;BME280;1994;48.640;8.894;2022-11-20T09:06:44;95693.28;;;6.89;96.40
3960;BME280;1994;48.640;8.894;2022-11-20T09:13:21;95705.66;;;6.69;97.23
3960;BME280;1994;48.640;8.894;2022-11-20T09:16:08;95700.94;;;6.66;97.60
3960;BME280;1994;48.640;8.894;2022-11-20T09:22:22;95706.22;;;6.71;97.26
3960;BME280;1994;48.640;8.894;2022-11-20T09:24:56;95713.81;;;6.66;97.28
3960;BME280;1994;48.640;8.894;2022-11-20T09:27:23;95714.25;;;6.63;97.45
3960;BME280;1994;48.640;8.894;2022-11-20T09:29:58;95721.56;;;6.48;97.37
3960;BME280;1994;48.640;8.894;2022-11-20T09:32:27;95716.00;;;6.51;97.20
3960;BME280;1994;48.640;8.894;2022-11-20T09:34:56;95710.09;;;6.62;96.22
3960;BME280;1994;48.640;8.894;2022-11-20T09:37:30;95721.22;;;6.44;96.20
3960;BME280;1994;48.640;8.894;2022-11-20T09:39:59;95714.06;;;6.46;96.32
3960;BME280;1994;48.640;8.894;2022-11-20T09:43:03;95718.88;;;6.43;96.90
3960;BME280;1994;48.640;8.894;2022-11-20T09:55:22;95713.56;;;6.56;98.23
3960;BME280;1994;48.640;8.894;2022-11-20T09:57:54;95718.69;;;6.56;98.47
3960;BME280;1994;48.640;8.894;2022-11-20T10:00:23;95709.09;;;6.63;99.63
3960;BME280;1994;48.640;8.894;2022-11-20T10:03:10;95715.38;;;6.67;99.22
3960;BME280;1994;48.640;8.894;2022-11-20T10:05:45;95715.38;;;6.67;100.00
3960;BME280;1994;48.640;8.894;2022-11-20T10:25:02;95714.91;;;6.99;98.47
3960;BME280;1994;48.640;8.894;2022-11-20T10:30:17;95711.69;;;7.15;98.54
3960;BME280;1994;48.640;8.894;2022-11-20T10:32:52;95715.75;;;7.11;98.64
3960;BME280;1994;48.640;8.894;2022-11-20T10:36:22;95713.03;;;7.18;98.15
3960;BME280;1994;48.640;8.894;2022-11-20T10:52:04;95705.19;;;8.28;92.77
3960;BME280;1994;48.640;8.894;2022-11-20T10:54:44;95690.97;;;8.42;90.73
3960;BME280;1994;48.640;8.894;2022-11-20T10:57:49;95705.66;;;8.41;90.51
3960;BME280;1994;48.640;8.894;2022-11-20T11:00:49;95699.66;;;8.36;90.59
3960;BME280;1994;48.640;8.894;2022-11-20T11:03:30;95701.91;;;8.32;90.07
3960;BME280;1994;48.640;8.894;2022-11-20T11:12:52;95684.97;;;8.25;90.38
3960;BME280;1994;48.640;8.894;2022-11-20T11:15:40;95678.03;;;8.14;90.29
3960;BME280;1994;48.640;8.894;2022-11-20T11:20:56;95673.94;;;8.41;88.77
3960;BME280;1994;48.640;8.894;2022-11-20T11:23:42;95665.53;;;8.62;87.37
3960;BME280;1994;48.640;8.894;2022-11-20T11:26:28;95661.38;;;8.89;84.55
3960;BME280;1994;48.640;8.894;2022-11-20T11:32:21;95651.59;;;11.69;75.60
3960;BME280;1994;48.640;8.894;2022-11-20T11:35:22;95652.47;;;12.56;65.98
3960;BME280;1994;48.640;8.894;2022-11-20T11:38:07;95653.09;;;12.98;66.28
3960;BME280;1994;48.640;8.894;2022-11-20T11:40:40;95653.00;;;13.78;63.86
3960;BME280;1994;48.640;8.894;2022-11-20T11:43:22;95646.81;;;13.44;63.81
3960;BME280;1994;48.640;8.894;2022-11-20T11:46:28;95646.31;;;13.57;62.64
3960;BME280;1994;48.640;8.894;2022-11-20T11:53:25;95636.44;;;12.99;62.24
3960;BME280;1994;48.640;8.894;2022-11-20T11:56:09;95622.81;;;12.32;63.26
3960;BME280;1994;48.640;8.894;2022-11-20T12:05:35;95618.91;;;12.29;62.78
3960;BME280;1994;48.640;8.894;2022-11-20T12:12:16;95630.69;;;12.77;61.92
3960;BME280;1994;48.640;8.894;2022-11-20T12:14:57;95627.06;;;12.93;62.00
3960;BME280;1994;48.640;8.894;2022-11-20T12:17:27;95629.09;;;12.56;63.72
3960;BME280;1994;48.640;8.894;2022-11-20T12:19:54;95626.94;;;12.28;64.39
3960;BME280;1994;48.640;8.894;2022-11-20T12:25:46;95611.56;;;11.18;66.18
3960;BME280;1994;48.640;8.894;2022-11-20T12:32:32;95609.59;;;10.14;70.02
3960;BME280;1994;48.640;8.894;2022-11-20T13:03:28;95615.88;;;10.45;65.46
3960;BME280;1994;48.640;8.894;2022-11-20T13:06:19;95616.38;;;10.42;65.87
3960;BME280;1994;48.640;8.894;2022-11-20T13:12:24;95618.38;;;10.35;66.81
3960;BME280;1994;48.640;8.894;2022-11-20T13:18:05;95610.84;;;10.12;68.88
3960;BME280;1994;48.640;8.894;2022-11-20T13:20:46;95613.00;;;9.77;69.62
3960;BME280;1994;48.640;8.894;2022-11-20T13:23:27;95615.75;;;9.49;70.28
3960;BME280;1994;48.640;8.894;2022-11-20T13:26:34;95607.50;;;8.81;74.19
3960;BME280;1994;48.640;8.894;2022-11-20T13:29:20;95609.69;;;8.72;73.18
3960;BME280;1994;48.640;8.894;2022-11-20T13:31:48;95608.63;;;8.40;73.62
3960;BME280;1994;48.640;8.894;2022-11-20T13:34:30;95609.94;;;8.26;74.97
3960;BME280;1994;48.640;8.894;2022-11-20T13:37:01;95611.94;;;8.24;75.54
3960;BME280;1994;48.640;8.894;2022-11-20T13:39:34;95604.81;;;8.43;75.86
3960;BME280;1994;48.640;8.894;2022-11-20T13:44:54;95605.41;;;8.33;78.77
3960;BME280;1994;48.640;8.894;2022-11-20T13:47:29;95598.81;;;8.26;78.66
3960;BME280;1994;48.640;8.894;2022-11-20T14:00:26;95592.63;;;7.99;81.56
3960;BME280;1994;48.640;8.894;2022-11-20T14:03:20;95592.28;;;7.56;83.05
3960;BME280;1994;48.640;8.894;2022-11-20T14:05:54;95581.75;;;7.69;82.86
3960;BME280;1994;48.640;8.894;2022-11-20T14:12:21;95582.19;;;7.66;83.52
3960;BME280;1994;48.640;8.894;2022-11-20T14:18:34;95573.34;;;7.62;83.00
3960;BME280;1994;48.640;8.894;2022-11-20T14:21:10;95582.31;;;7.59;83.38
3960;BME280;1994;48.640;8.894;2022-11-20T14:23:37;95579.81;;;7.25;84.97
3960;BME280;1994;48.640;8.894;2022-11-20T14:26:15;95575.75;;;7.29;85.57
3960;BME280;1994;48.640;8.894;2022-11-20T14:32:32;95570.03;;;7.27;86.37
3960;BME280;1994;48.640;8.894;2022-11-20T14:35:13;95580.47;;;7.32;86.22
3960;BME280;1994;48.640;8.894;2022-11-20T14:37:44;95565.25;;;7.19;87.15
3960;BME280;1994;48.640;8.894;2022-11-20T14:40:37;95562.91;;;7.17;86.14
3960;BME280;1994;48.640;8.894;2022-11-20T14:43:28;95559.31;;;7.30;86.02
3960;BME280;1994;48.640;8.894;2022-11-20T14:46:02;95554.59;;;7.27;84.91
3960;BME280;1994;48.640;8.894;2022-11-20T14:52:28;95542.41;;;7.11;85.79
3960;BME280;1994;48.640;8.894;2022-11-20T14:58:44;95526.94;;;6.99;86.66
3960;BME280;1994;48.640;8.894;2022-11-20T15:01:33;95522.81;;;6.98;86.78
3960;BME280;1994;48.640;8.894;2022-11-20T15:04:11;95518.81;;;6.79;87.53
3960;BME280;1994;48.640;8.894;2022-11-20T15:06:51;95522.47;;;6.95;87.52
3960;BME280;1994;48.640;8.894;2022-11-20T15:13:23;95507.72;;;6.79;89.16
3960;BME280;1994;48.640;8.894;2022-11-20T15:15:57;95511.53;;;6.76;89.66
3960;BME280;1994;48.640;8.894;2022-11-20T15:18:41;95508.28;;;6.58;90.95
3960;BME280;1994;48.640;8.894;2022-11-20T15:21:19;95498.78;;;6.70;90.72
3960;BME280;1994;48.640;8.894;2022-11-20T15:23:50;95504.38;;;6.67;91.10
3960;BME280;1994;48.640;8.894;2022-11-20T15:26:28;95495.19;;;6.71;90.78
3960;BME280;1994;48.640;8.894;2022-11-20T15:32:48;95488.91;;;6.55;91.66
3960;BME280;1994;48.640;8.894;2022-11-20T15:35:17;95485.00;;;6.53;91.68
3960;BME280;1994;48.640;8.894;2022-11-20T15:37:45;95484.56;;;6.56;91.89
3960;BME280;1994;48.640;8.894;2022-11-20T15:40:12;95485.13;;;6.58;91.64
3960;BME280;1994;48.640;8.894;2022-11-20T15:42:42;95490.72;;;6.55;92.11
3960;BME280;1994;48.640;8.894;2022-11-20T15:45:33;95488.22;;;6.37;93.29
3960;BME280;1994;48.640;8.894;2022-11-20T15:48:21;95486.13;;;6.45;93.80
3960;BME280;1994;48.640;8.894;2022-11-20T15:53:44;95471.94;;;6.43;94.00
3960;BME280;1994;48.640;8.894;2022-11-20T15:56:20;95483.53;;;6.34;94.32
3960;BME280;1994;48.640;8.894;2022-11-20T16:02:32;95480.75;;;6.35;94.89
3960;BME280;1994;48.640;8.894;2022-11-20T16:04:59;95479.16;;;6.34;94.99
3960;BME280;1994;48.640;8.894;2022-11-20T16:07:31;95473.03;;;6.47;95.08
3960;BME280;1994;48.640;8.894;2022-11-20T16:13:42;95480.50;;;6.37;94.99
3960;BME280;1994;48.640;8.894;2022-11-20T16:16:34;95480.41;;;6.32;94.90
3960;BME280;1994;48.640;8.894;2022-11-20T16:19:13;95478.63;;;6.44;94.41
3960;BME280;1994;48.640;8.894;2022-11-20T16:21:43;95473.50;;;6.44;93.70
3960;BME280;1994;48.640;8.894;2022-11-20T16:24:21;95469.91;;;6.45;94.00
3960;BME280;1994;48.640;8.894;2022-11-20T16:26:55;95468.91;;;6.46;93.58
3960;BME280;1994;48.640;8.894;2022-11-20T16:33:21;95469.00;;;6.51;93.15
3960;BME280;1994;48.640;8.894;2022-11-20T16:35:57;95466.53;;;6.44;92.97
3960;BME280;1994;48.640;8.894;2022-11-20T16:42:07;95477.28;;;6.53;93.12
3960;BME280;1994;48.640;8.894;2022-11-20T16:44:37;95474.03;;;6.46;93.50
3960;BME280;1994;48.640;8.894;2022-11-20T16:47:21;95473.38;;;6.50;93.02
3960;BME280;1994;48.640;8.894;2022-11-20T16:53:32;95467.69;;;6.60;91.49
3960;BME280;1994;48.640;8.894;2022-11-20T16:56:25;95461.72;;;6.48;91.48
3960;BME280;1994;48.640;8.894;2022-11-20T17:02:35;95458.59;;;6.46;90.73
3960;BME280;1994;48.640;8.894;2022-11-20T17:08:56;95451.56;;;6.53;89.77
3960;BME280;1994;48.640;8.894;2022-11-20T17:11:30;95456.25;;;6.56;89.96
3960;BME280;1994;48.640;8.894;2022-11-20T17:14:03;95454.25;;;6.58;89.35
3960;BME280;1994;48.640;8.894;2022-11-20T17:16:40;95455.28;;;6.45;88.98
3960;BME280;1994;48.640;8.894;2022-11-20T17:19:07;95448.44;;;6.51;88.76
3960;BME280;1994;48.640;8.894;2022-11-20T17:21:40;95448.00;;;6.54;88.23
3960;BME280;1994;48.640;8.894;2022-11-20T17:24:14;95440.34;;;6.59;87.39
3960;BME280;1994;48.640;8.894;2022-11-20T17:27:09;95439.94;;;6.62;87.16
3960;BME280;1994;48.640;8.894;2022-11-20T17:33:25;95445.50;;;6.59;86.29
3960;BME280;1994;48.640;8.894;2022-11-20T17:35:56;95439.69;;;6.52;86.96
3960;BME280;1994;48.640;8.894;2022-11-20T17:38:25;95442.84;;;6.54;87.06
3960;BME280;1994;48.640;8.894;2022-11-20T17:41:00;95433.88;;;6.68;86.23
3960;BME280;1994;48.640;8.894;2022-11-20T17:43:26;95434.19;;;6.83;87.72
3960;BME280;1994;48.640;8.894;2022-11-20T17:45:56;95441.44;;;6.86;87.07
3960;BME280;1994;48.640;8.894;2022-11-20T17:52:06;95424.44;;;6.85;85.47
3960;BME280;1994;48.640;8.894;2022-11-20T17:54:34;95419.63;;;6.88;85.64
3960;BME280;1994;48.640;8.894;2022-11-20T17:57:00;95418.59;;;7.01;84.45
3960;BME280;1994;48.640;8.894;2022-11-20T18:03:29;95400.38;;;6.91;84.59
3960;BME280;1994;48.640;8.894;2022-11-20T18:05:57;95397.56;;;7.04;83.62
3960;BME280;1994;48.640;8.894;2022-11-20T18:08:30;95387.25;;;7.04;82.97
3960;BME280;1994;48.640;8.894;2022-11-20T18:13:51;95384.44;;;6.66;83.97
3960;BME280;1994;48.640;8.894;2022-11-20T18:16:55;95380.09;;;6.55;84.49
3960;BME280;1994;48.640;8.894;2022-11-20T18:19:34;95380.84;;;6.67;84.42
3960;BME280;1994;48.640;8.894;2022-11-20T18:22:11;95381.75;;;6.61;84.55
3960;BME280;1994;48.640;8.894;2022-11-20T18:24:39;95369.69;;;6.50;85.47
3960;BME280;1994;48.640;8.894;2022-11-20T18:27:18;95369.69;;;6.50;85.77
3960;BME280;1994;48.640;8.894;2022-11-20T18:29:48;95355.16;;;6.44;85.63
3960;BME280;1994;48.640;8.894;2022-11-20T18:32:22;95367.66;;;6.52;85.54
3960;BME280;1994;48.640;8.894;2022-11-20T18:34:53;95358.06;;;6.36;86.59
3960;BME280;1994;48.640;8.894;2022-11-20T18:37:23;95367.13;;;6.38;86.49
3960;BME280;1994;48.640;8.894;2022-11-20T18:39:52;95358.53;;;6.33;87.26
3960;BME280;1994;48.640;8.894;2022-11-20T18:42:23;95352.38;;;6.34;87.85
3960;BME280;1994;48.640;8.894;2022-11-20T18:45:14;95362.78;;;6.27;87.91
3960;BME280;1994;48.640;8.894;2022-11-20T18:47:42;95367.69;;;6.29;88.16
3960;BME280;1994;48.640;8.894;2022-11-20T18:53:52;95365.69;;;6.08;87.10
3960;BME280;1994;48.640;8.894;2022-11-20T18:56:19;95363.56;;;6.05;84.98
3960;BME280;1994;48.640;8.894;2022-11-20T19:02:31;95368.53;;;5.77;86.45
3960;BME280;1994;48.640;8.894;2022-11-20T19:04:58;95366.13;;;5.82;87.15
3960;BME280;1994;48.640;8.894;2022-11-20T19:07:26;95368.13;;;5.80;86.90
3960;BME280;1994;48.640;8.894;2022-11-20T19:13:34;95355.59;;;5.72;87.27
3960;BME280;1994;48.640;8.894;2022-11-20T19:19:46;95359.59;;;5.68;86.80
3960;BME280;1994;48.640;8.894;2022-11-20T19:22:18;95355.31;;;5.50;87.21
3960;BME280;1994;48.640;8.894;2022-11-20T19:24:45;95352.84;;;5.44;88.01
3960;BME280;1994;48.640;8.894;2022-11-20T19:27:18;95350.59;;;5.36;88.16
3960;BME280;1994;48.640;8.894;2022-11-20T19:29:48;95347.47;;;5.34;87.85
3960;BME280;1994;48.640;8.894;2022-11-20T19:32:16;95352.06;;;5.55;88.17
3960;BME280;1994;48.640;8.894;2022-11-20T19:34:46;95347.28;;;5.47;88.48
3960;BME280;1994;48.640;8.894;2022-11-20T19:37:16;95343.66;;;5.25;89.45
3960;BME280;1994;48.640;8.894;2022-11-20T19:43:16;95341.69;;;5.09;89.96
3960;BME280;1994;48.640;8.894;2022-11-20T19:45:50;95340.25;;;5.13;89.80
3960;BME280;1994;48.640;8.894;2022-11-20T19:51:52;95337.56;;;5.08;90.13
3960;BME280;1994;48.640;8.894;2022-11-20T19:54:22;95334.41;;;5.06;90.39
3960;BME280;1994;48.640;8.894;2022-11-20T19:56:52;95331.28;;;5.04;90.30
3960;BME280;1994;48.640;8.894;2022-11-20T19:59:20;95332.31;;;5.03;90.38
3960;BME280;1994;48.640;8.894;2022-11-20T20:01:53;95329.28;;;5.06;90.08
3960;BME280;1994;48.640;8.894;2022-11-20T20:04:19;95324.72;;;5.08;89.63
3960;BME280;1994;48.640;8.894;2022-11-20T20:06:46;95331.09;;;5.17;89.75
3960;BME280;1994;48.640;8.894;2022-11-20T20:12:58;95334.25;;;5.19;89.19
3960;BME280;1994;48.640;8.894;2022-11-20T20:15:25;95328.53;;;5.17;89.36
3960;BME280;1994;48.640;8.894;2022-11-20T20:18:00;95323.84;;;5.14;89.21
3960;BME280;1994;48.640;8.894;2022-11-20T20:20:36;95339.53;;;5.06;89.43
3960;BME280;1994;48.640;8.894;2022-11-20T20:23:03;95325.94;;;5.05;89.95
3960;BME280;1994;48.640;8.894;2022-11-20T20:25:34;95332.03;;;4.93;90.27
3960;BME280;1994;48.640;8.894;2022-11-20T20:28:06;95330.22;;;5.11;90.34
3960;BME280;1994;48.640;8.894;2022-11-20T20:30:35;95339.03;;;5.15;90.54
3960;BME280;1994;48.640;8.894;2022-11-20T20:33:05;95343.13;;;5.05;91.10
3960;BME280;1994;48.640;8.894;2022-11-20T20:35:40;95348.13;;;5.00;91.00
3960;BME280;1994;48.640;8.894;2022-11-20T20:38:13;95350.94;;;5.10;90.96
3960;BME280;1994;48.640;8.894;2022-11-20T20:40:50;95356.34;;;5.20;91.13
3960;BME280;1994;48.640;8.894;2022-11-20T20:43:17;95354.09;;;5.12;90.96
3960;BME280;1994;48.640;8.894;2022-11-20T20:45:48;95368.19;;;5.21;91.00
3960;BME280;1994;48.640;8.894;2022-11-20T20:48:25;95368.91;;;5.10;91.86
3960;BME280;1994;48.640;8.894;2022-11-20T20:51:00;95384.03;;;5.18;91.91
3960;BME280;1994;48.640;8.894;2022-11-20T20:53:37;95394.72;;;5.15;91.88
3960;BME280;1994;48.640;8.894;2022-11-20T20:56:07;95391.59;;;5.13;92.25
3960;BME280;1994;48.640;8.894;2022-11-20T20:58:38;95387.50;;;5.23;92.57
3960;BME280;1994;48.640;8.894;2022-11-20T21:01:17;95393.22;;;5.07;92.87
3960;BME280;1994;48.640;8.894;2022-11-20T21:03:45;95400.72;;;5.09;94.05
3960;BME280;1994;48.640;8.894;2022-11-20T21:06:13;95402.88;;;5.12;93.90
3960;BME280;1994;48.640;8.894;2022-11-20T21:08:44;95397.75;;;4.94;95.08
3960;BME280;1994;48.640;8.894;2022-11-20T21:11:17;95409.16;;;4.98;96.03
3960;BME280;1994;48.640;8.894;2022-11-20T21:13:45;95408.88;;;4.88;96.09
3960;BME280;1994;48.640;8.894;2022-11-20T21:16:17;95404.31;;;4.90;95.88
3960;BME280;1994;48.640;8.894;2022-11-20T21:18:51;95400.91;;;4.96;95.88
3960;BME280;1994;48.640;8.894;2022-11-20T21:21:17;95403.31;;;4.91;95.69
3960;BME280;1994;48.640;8.894;2022-11-20T21:24:11;95410.72;;;4.99;95.49
3960;BME280;1994;48.640;8.894;2022-11-20T21:26:38;95400.09;;;4.95;96.33
3960;BME280;1994;48.640;8.894;2022-11-20T21:32:49;95403.56;;;5.01;96.97
3960;BME280;1994;48.640;8.894;2022-11-20T21:35:23;95383.56;;;4.91;97.79
3960;BME280;1994;48.640;8.894;2022-11-20T21:37:50;95391.56;;;4.83;98.39
3960;BME280;1994;48.640;8.894;2022-11-20T21:40:20;95381.66;;;4.87;98.89
3960;BME280;1994;48.640;8.894;2022-11-20T21:42:52;95378.09;;;4.88;98.44
3960;BME280;1994;48.640;8.894;2022-11-20T21:45:19;95378.53;;;4.85;98.52
3960;BME280;1994;48.640;8.894;2022-11-20T21:47:49;95383.22;;;4.88;98.73
3960;BME280;1994;48.640;8.894;2022-11-20T21:50:25;95390.72;;;4.89;98.94
3960;BME280;1994;48.640;8.894;2022-11-20T21:52:53;95393.06;;;4.91;98.91
3960;BME280;1994;48.640;8.894;2022-11-20T21:55:21;95402.88;;;4.94;99.94
3960;BME280;1994;48.640;8.894;2022-11-20T21:57:51;95398.19;;;4.91;99.95
3960;BME280;1994;48.640;8.894;2022-11-20T22:00:21;95397.47;;;4.84;100.00
3960;BME280;1994;48.640;8.894;2022-11-20T22:02:48;95395.84;;;4.89;100.00
3960;BME280;1994;48.640;8.894;2022-11-20T22:05:16;95395.50;;;4.86;100.00
3960;BME280;1994;48.640;8.894;2022-11-20T22:07:48;95395.75;;;4.78;100.00